createdAt,value
2023-05-21T00:02:00.240Z,89.00
2023-05-21T00:04:29.780Z,88.60
2023-05-21T00:06:57.093Z,88.70
2023-05-21T00:09:24.264Z,88.80
2023-05-21T00:11:51.324Z,88.80
2023-05-21T00:14:18.518Z,88.70
2023-05-21T00:16:47.124Z,88.80
2023-05-21T00:19:14.527Z,88.70
2023-05-21T00:21:41.692Z,88.70
2023-05-21T00:24:09.476Z,88.80
2023-05-21T00:26:36.599Z,88.90
2023-05-21T00:29:04.759Z,88.90
2023-05-21T00:31:32.305Z,88.90
2023-05-21T00:33:59.866Z,89.00
2023-05-21T00:36:26.935Z,89.10
2023-05-21T00:38:54.066Z,89.10
2023-05-21T00:41:23.280Z,89.10
2023-05-21T00:43:50.412Z,89.30
2023-05-21T00:46:19.699Z,89.30
2023-05-21T00:48:49.028Z,89.20
2023-05-21T00:51:17.008Z,89.30
2023-05-21T00:53:45.381Z,89.30
2023-05-21T00:56:12.845Z,89.30
2023-05-21T00:58:41.131Z,89.30
2023-05-21T01:01:13.857Z,89.40
2023-05-21T01:03:41.434Z,89.70
2023-05-21T01:06:09.871Z,90.10
2023-05-21T01:08:37.847Z,90.00
2023-05-21T01:11:06.490Z,90.00
2023-05-21T01:13:34.443Z,89.60
2023-05-21T01:16:02.921Z,89.70
2023-05-21T01:18:30.281Z,89.80
2023-05-21T01:20:57.385Z,89.70
2023-05-21T01:23:24.944Z,89.80
2023-05-21T01:25:52.050Z,89.90
2023-05-21T01:28:19.220Z,90.20
2023-05-21T01:30:46.755Z,90.30
2023-05-21T01:33:25.866Z,90.30
2023-05-21T01:36:16.362Z,90.10
2023-05-21T01:38:51.428Z,90.10
2023-05-21T01:41:20.024Z,90.00
2023-05-21T01:43:47.542Z,90.00
2023-05-21T01:46:29.142Z,89.90
2023-05-21T01:48:57.402Z,89.90
2023-05-21T01:51:26.127Z,89.90
2023-05-21T01:53:53.225Z,89.90
2023-05-21T01:56:23.163Z,89.90
2023-05-21T01:58:50.392Z,90.00
2023-05-21T02:01:17.574Z,90.00
2023-05-21T02:03:47.770Z,90.10
2023-05-21T02:06:14.985Z,90.00
2023-05-21T02:08:42.100Z,90.00
2023-05-21T02:11:10.274Z,90.00
2023-05-21T02:13:42.852Z,90.00
2023-05-21T02:16:14.957Z,90.00
2023-05-21T02:18:46.528Z,90.10
2023-05-21T02:21:13.843Z,90.10
2023-05-21T02:23:42.880Z,90.10
2023-05-21T02:26:10.202Z,90.10
2023-05-21T02:28:38.610Z,90.20
2023-05-21T02:31:06.042Z,90.20
2023-05-21T02:33:33.153Z,90.20
2023-05-21T02:36:00.268Z,90.20
2023-05-21T02:38:27.544Z,90.20
2023-05-21T02:40:54.646Z,90.20
2023-05-21T02:43:21.908Z,90.30
2023-05-21T02:45:49.147Z,90.20
2023-05-21T02:48:16.390Z,90.40
2023-05-21T02:50:44.465Z,90.20
2023-05-21T02:53:12.545Z,90.20
2023-05-21T02:55:40.362Z,90.20
2023-05-21T02:58:07.420Z,90.40
2023-05-21T03:00:34.612Z,90.30
2023-05-21T03:03:01.876Z,90.30
2023-05-21T03:05:29.161Z,90.20
2023-05-21T03:07:56.606Z,90.50
2023-05-21T03:10:23.685Z,90.30
2023-05-21T03:12:51.066Z,90.30
2023-05-21T03:15:23.945Z,90.30
2023-05-21T03:17:54.406Z,90.30
2023-05-21T03:20:23.594Z,90.20
2023-05-21T03:22:50.715Z,90.20
2023-05-21T03:25:18.943Z,90.20
2023-05-21T03:27:46.087Z,90.20
2023-05-21T03:30:29.944Z,90.20
2023-05-21T03:33:33.647Z,90.20
2023-05-21T03:36:04.821Z,90.30
2023-05-21T03:38:37.148Z,90.30
2023-05-21T03:41:05.279Z,90.30
2023-05-21T03:43:32.619Z,90.30
2023-05-21T03:45:59.791Z,90.30
2023-05-21T03:48:45.988Z,90.30
2023-05-21T03:51:18.108Z,90.30
2023-05-21T03:53:45.368Z,90.30
2023-05-21T03:56:12.995Z,90.30
2023-05-21T03:58:41.537Z,90.40
2023-05-21T04:01:09.089Z,90.30
2023-05-21T04:03:40.005Z,90.30
2023-05-21T04:06:10.347Z,90.30
2023-05-21T04:08:39.745Z,90.30
2023-05-21T04:11:06.994Z,90.30
2023-05-21T04:13:34.218Z,90.40
2023-05-21T04:16:01.363Z,90.30
2023-05-21T04:18:29.269Z,90.40
2023-05-21T04:20:56.560Z,90.40
2023-05-21T04:23:24.009Z,90.40
2023-05-21T04:25:53.100Z,90.40
2023-05-21T04:28:21.270Z,90.50
2023-05-21T04:30:49.988Z,90.50
2023-05-21T04:33:20.362Z,90.40
2023-05-21T04:35:50.387Z,90.50
2023-05-21T04:38:21.556Z,90.40
2023-05-21T04:40:53.636Z,90.50
2023-05-21T04:43:25.919Z,90.50
2023-05-21T04:45:57.555Z,90.60
2023-05-21T04:48:27.226Z,90.60
2023-05-21T04:50:56.008Z,90.70
2023-05-21T04:53:26.210Z,90.60
2023-05-21T04:55:53.751Z,90.70
2023-05-21T04:58:21.290Z,91.10
2023-05-21T05:00:51.132Z,90.90
2023-05-21T05:03:18.609Z,90.80
2023-05-21T05:05:46.213Z,90.70
2023-05-21T05:08:15.583Z,90.70
2023-05-21T05:10:43.428Z,90.70
2023-05-21T05:13:10.695Z,90.70
2023-05-21T05:15:38.218Z,90.80
2023-05-21T05:18:08.703Z,90.70
2023-05-21T05:20:36.357Z,90.80
2023-05-21T05:23:03.593Z,90.80
2023-05-21T05:25:31.040Z,91.70
2023-05-21T05:27:58.615Z,91.10
2023-05-21T05:30:25.851Z,91.10
2023-05-21T05:32:56.802Z,91.00
2023-05-21T05:35:24.005Z,91.40
2023-05-21T05:37:51.068Z,91.10
2023-05-21T05:40:18.171Z,91.10
2023-05-21T05:42:45.406Z,91.10
2023-05-21T05:45:15.940Z,91.20
2023-05-21T05:47:43.085Z,91.20
2023-05-21T05:50:10.497Z,91.20
2023-05-21T05:52:37.849Z,91.20
2023-05-21T05:55:05.548Z,91.20
2023-05-21T05:57:32.665Z,91.30
2023-05-21T06:00:05.681Z,91.60
2023-05-21T06:02:39.387Z,91.40
2023-05-21T06:05:07.348Z,91.30
2023-05-21T06:07:35.820Z,91.30
2023-05-21T06:10:03.586Z,91.30
2023-05-21T06:12:30.902Z,91.30
2023-05-21T06:14:58.152Z,91.70
2023-05-21T06:17:25.568Z,91.70
2023-05-21T06:19:53.861Z,93.80
2023-05-21T06:22:23.047Z,93.60
2023-05-21T06:24:51.773Z,93.50
2023-05-21T06:27:19.049Z,93.00
2023-05-21T06:29:46.326Z,92.60
2023-05-21T06:32:13.984Z,93.10
2023-05-21T06:34:42.031Z,93.50
2023-05-21T06:37:09.081Z,92.80
2023-05-21T06:39:36.235Z,93.00
2023-05-21T06:42:03.839Z,94.10
2023-05-21T06:44:49.716Z,94.40
2023-05-21T06:47:23.312Z,93.20
2023-05-21T06:49:50.600Z,93.40
2023-05-21T06:52:17.754Z,94.00
2023-05-21T06:54:45.181Z,93.20
2023-05-21T06:57:12.345Z,93.10
2023-05-21T06:59:39.491Z,93.30
2023-05-21T07:02:07.073Z,93.50
2023-05-21T07:04:35.348Z,93.40
2023-05-21T07:07:04.974Z,93.50
2023-05-21T07:09:32.357Z,93.80
2023-05-21T07:11:59.685Z,93.50
2023-05-21T07:14:26.946Z,93.50
2023-05-21T07:16:54.562Z,93.60
2023-05-21T07:19:21.743Z,93.80
2023-05-21T07:21:50.100Z,93.70
2023-05-21T07:24:17.230Z,93.80
2023-05-21T07:26:44.520Z,93.80
2023-05-21T07:29:13.288Z,93.70
2023-05-21T07:31:41.041Z,93.80
2023-05-21T07:34:08.147Z,93.80
2023-05-21T07:36:35.477Z,93.70
2023-05-21T07:39:03.816Z,93.70
2023-05-21T07:41:31.372Z,93.80
2023-05-21T07:44:03.062Z,94.10
2023-05-21T07:46:32.507Z,93.90
2023-05-21T07:48:59.840Z,94.10
2023-05-21T07:51:28.161Z,94.10
2023-05-21T07:53:56.652Z,94.10
2023-05-21T07:56:32.733Z,94.00
2023-05-21T07:59:00.279Z,94.00
2023-05-21T08:01:29.672Z,94.00
2023-05-21T08:04:00.889Z,93.90
2023-05-21T08:06:28.269Z,93.90
2023-05-21T08:08:55.406Z,93.90
2023-05-21T08:11:23.427Z,93.90
2023-05-21T08:13:50.689Z,93.80
2023-05-21T08:16:17.838Z,93.50
2023-05-21T08:18:44.982Z,93.60
2023-05-21T08:21:12.376Z,93.50
2023-05-21T08:23:40.524Z,93.50
2023-05-21T08:26:08.573Z,93.60
2023-05-21T08:28:39.149Z,93.60
2023-05-21T08:31:06.558Z,93.60
2023-05-21T08:33:38.360Z,93.40
2023-05-21T08:36:07.297Z,93.50
2023-05-21T08:38:41.903Z,93.50
2023-05-21T08:41:14.866Z,93.40
2023-05-21T08:43:48.593Z,93.40
2023-05-21T08:46:21.883Z,93.30
2023-05-21T08:48:50.380Z,93.00
2023-05-21T08:51:18.362Z,92.60
2023-05-21T08:53:50.880Z,92.80
2023-05-21T08:56:21.288Z,93.00
2023-05-21T08:58:54.136Z,92.90
2023-05-21T09:01:26.314Z,93.00
2023-05-21T09:04:20.234Z,92.80
2023-05-21T09:06:52.140Z,92.70
2023-05-21T09:09:38.662Z,92.50
2023-05-21T09:12:06.288Z,92.40
2023-05-21T09:14:38.583Z,92.20
2023-05-21T09:17:16.563Z,92.50
2023-05-21T09:20:15.366Z,92.30
2023-05-21T09:22:50.630Z,92.20
2023-05-21T09:25:22.937Z,91.70
2023-05-21T09:27:51.469Z,91.50
2023-05-21T09:30:22.585Z,92.40
2023-05-21T09:33:05.823Z,92.30
2023-05-21T09:35:34.534Z,92.10
2023-05-21T09:38:08.461Z,93.80
2023-05-21T09:40:35.996Z,95.20
2023-05-21T09:43:03.370Z,95.10
2023-05-21T09:45:30.606Z,96.90
2023-05-21T09:47:59.264Z,97.80
2023-05-21T09:50:31.542Z,96.40
2023-05-21T09:52:58.692Z,95.70
2023-05-21T09:55:27.115Z,96.10
2023-05-21T09:57:54.483Z,96.20
2023-05-21T10:00:23.170Z,96.40
2023-05-21T10:03:11.621Z,94.30
2023-05-21T10:05:39.269Z,94.40
2023-05-21T10:08:09.242Z,94.40
2023-05-21T10:10:39.073Z,93.90
2023-05-21T10:13:09.202Z,92.00
2023-05-21T10:15:44.184Z,93.00
2023-05-21T10:18:21.220Z,91.20
2023-05-21T10:20:49.582Z,87.40
2023-05-21T10:23:19.659Z,90.10
2023-05-21T10:25:47.439Z,91.40
2023-05-21T10:28:19.297Z,90.20
2023-05-21T10:30:46.899Z,90.40
2023-05-21T10:33:16.822Z,89.20
2023-05-21T10:35:47.045Z,82.10
2023-05-21T10:38:20.404Z,77.60
2023-05-21T10:40:49.181Z,74.80
2023-05-21T10:43:40.947Z,82.40
2023-05-21T10:46:15.884Z,82.10
2023-05-21T10:49:01.629Z,82.70
2023-05-21T10:51:56.379Z,81.90
2023-05-21T10:54:54.490Z,81.10
2023-05-21T10:57:53.480Z,80.60
2023-05-21T11:00:21.349Z,76.60
2023-05-21T11:02:48.935Z,76.00
2023-05-21T11:05:16.066Z,76.20
2023-05-21T11:07:59.124Z,75.90
2023-05-21T11:10:40.678Z,70.10
2023-05-21T11:13:08.952Z,75.40
2023-05-21T11:15:54.786Z,75.10
2023-05-21T11:18:21.889Z,75.00
2023-05-21T11:20:52.048Z,74.50
2023-05-21T11:23:21.185Z,75.00
2023-05-21T11:26:04.884Z,74.50
2023-05-21T11:28:35.168Z,73.90
2023-05-21T11:31:27.699Z,71.90
2023-05-21T11:34:15.077Z,71.20
2023-05-21T11:36:46.879Z,69.70
2023-05-21T11:39:21.973Z,68.60
2023-05-21T11:42:03.068Z,69.80
2023-05-21T11:44:41.943Z,69.40
2023-05-21T11:47:11.152Z,65.50
2023-05-21T11:49:39.385Z,67.20
2023-05-21T11:52:08.544Z,67.70
2023-05-21T11:54:46.478Z,69.20
2023-05-21T11:57:17.423Z,66.80
2023-05-21T11:59:45.770Z,66.80
2023-05-21T12:02:17.626Z,65.90
2023-05-21T12:04:46.383Z,63.00
2023-05-21T12:07:15.225Z,64.70
2023-05-21T12:09:44.028Z,64.20
2023-05-21T12:12:15.990Z,64.50
2023-05-21T12:14:48.166Z,58.20
2023-05-21T12:17:23.116Z,63.10
2023-05-21T12:19:56.693Z,63.20
2023-05-21T12:22:25.299Z,62.00
2023-05-21T12:24:53.929Z,63.40
2023-05-21T12:27:22.604Z,61.90
2023-05-21T12:29:53.941Z,63.10
2023-05-21T12:32:21.976Z,60.70
2023-05-21T12:34:54.908Z,62.00
2023-05-21T12:37:23.326Z,62.40
2023-05-21T12:39:52.736Z,64.20
2023-05-21T12:42:27.801Z,64.20
2023-05-21T12:44:58.301Z,60.90
2023-05-21T12:47:27.190Z,61.60
2023-05-21T12:49:58.076Z,61.00
2023-05-21T12:52:27.279Z,61.40
2023-05-21T12:54:59.023Z,60.90
2023-05-21T12:57:37.306Z,61.00
2023-05-21T13:00:11.353Z,58.90
2023-05-21T13:02:44.981Z,59.20
2023-05-21T13:05:19.944Z,58.80
2023-05-21T13:07:48.022Z,57.70
2023-05-21T13:10:18.702Z,58.00
2023-05-21T13:12:46.352Z,55.30
2023-05-21T13:15:14.466Z,57.70
2023-05-21T13:17:41.657Z,57.70
2023-05-21T13:20:16.851Z,58.80
2023-05-21T13:22:54.092Z,59.20
2023-05-21T13:25:25.019Z,55.50
2023-05-21T13:27:53.452Z,53.10
2023-05-21T13:30:22.101Z,56.40
2023-05-21T13:32:49.690Z,56.50
2023-05-21T13:35:17.285Z,57.00
2023-05-21T13:37:45.034Z,56.70
2023-05-21T13:40:15.270Z,56.70
2023-05-21T13:42:44.340Z,54.70
2023-05-21T13:45:13.041Z,55.80
2023-05-21T13:47:40.847Z,57.80
2023-05-21T13:50:08.672Z,53.60
2023-05-21T13:52:35.900Z,53.90
2023-05-21T13:55:03.532Z,53.20
2023-05-21T13:57:31.143Z,53.80
2023-05-21T13:59:59.527Z,57.30
2023-05-21T14:02:26.874Z,53.60
2023-05-21T14:04:54.230Z,53.80
2023-05-21T14:07:22.248Z,57.20
2023-05-21T14:09:49.964Z,52.80
2023-05-21T14:12:17.328Z,53.60
2023-05-21T14:14:44.734Z,52.90
2023-05-21T14:17:11.920Z,58.00
2023-05-21T14:19:38.950Z,58.10
2023-05-21T14:22:05.953Z,58.10
2023-05-21T14:24:33.102Z,55.40
2023-05-21T14:27:00.234Z,59.40
2023-05-21T14:29:27.630Z,57.50
2023-05-21T14:31:54.775Z,55.10
2023-05-21T14:34:21.987Z,60.20
2023-05-21T14:36:49.022Z,61.10
2023-05-21T14:39:16.141Z,60.80
2023-05-21T14:41:43.260Z,60.50
2023-05-21T14:44:10.521Z,60.80
2023-05-21T14:46:39.617Z,60.40
2023-05-21T14:49:07.262Z,61.00
2023-05-21T14:51:34.305Z,60.50
2023-05-21T14:54:01.342Z,61.70
2023-05-21T14:56:28.499Z,61.90
2023-05-21T14:58:56.397Z,59.30
2023-05-21T15:01:23.882Z,59.70
2023-05-21T15:03:51.283Z,61.70
2023-05-21T15:06:18.598Z,60.20
2023-05-21T15:08:45.693Z,61.20
2023-05-21T15:11:12.762Z,60.50
2023-05-21T15:13:39.847Z,60.90
2023-05-21T15:16:07.312Z,60.10
2023-05-21T15:18:34.500Z,62.40
2023-05-21T15:21:01.648Z,63.30
2023-05-21T15:23:28.741Z,63.20
2023-05-21T15:25:56.045Z,64.00
2023-05-21T15:28:23.189Z,63.10
2023-05-21T15:30:50.538Z,63.30
2023-05-21T15:33:17.757Z,64.90
2023-05-21T15:35:45.349Z,64.70
2023-05-21T15:38:12.772Z,65.40
2023-05-21T15:40:42.113Z,65.70
2023-05-21T15:43:09.386Z,65.80
2023-05-21T15:45:36.894Z,65.60
2023-05-21T15:48:04.725Z,65.90
2023-05-21T15:50:31.922Z,65.60
2023-05-21T15:52:59.056Z,66.10
2023-05-21T15:55:26.126Z,66.10
2023-05-21T15:57:53.141Z,66.20
2023-05-21T16:00:20.241Z,66.10
2023-05-21T16:02:47.638Z,65.90
2023-05-21T16:05:14.753Z,66.40
2023-05-21T16:07:41.843Z,66.20
2023-05-21T16:10:10.706Z,66.70
2023-05-21T16:12:38.681Z,67.20
2023-05-21T16:15:06.805Z,67.50
2023-05-21T16:17:33.964Z,67.80
2023-05-21T16:20:01.058Z,67.20
2023-05-21T16:22:28.217Z,67.60
2023-05-21T16:24:55.798Z,67.40
2023-05-21T16:27:22.958Z,67.30
2023-05-21T16:29:50.129Z,67.70
2023-05-21T16:32:17.331Z,68.30
2023-05-21T16:34:44.560Z,66.90
2023-05-21T16:37:11.925Z,68.10
2023-05-21T16:39:39.225Z,68.00
2023-05-21T16:42:06.498Z,68.00
2023-05-21T16:44:33.697Z,68.60
2023-05-21T16:47:02.036Z,68.80
2023-05-21T16:49:28.971Z,68.30
2023-05-21T16:51:56.327Z,68.90
2023-05-21T16:54:23.523Z,68.80
2023-05-21T16:56:50.685Z,67.70
2023-05-21T16:59:17.861Z,68.20
2023-05-21T17:01:45.019Z,68.70
2023-05-21T17:04:12.211Z,68.80
2023-05-21T17:06:39.296Z,68.80
2023-05-21T17:09:06.864Z,68.70
2023-05-21T17:11:35.177Z,68.90
2023-05-21T17:14:02.265Z,68.80
2023-05-21T17:16:29.514Z,69.70
2023-05-21T17:18:56.682Z,68.90
2023-05-21T17:21:24.066Z,68.90
2023-05-21T17:23:51.188Z,68.70
2023-05-21T17:26:18.291Z,69.50
2023-05-21T17:28:45.459Z,69.60
2023-05-21T17:31:12.615Z,69.70
2023-05-21T17:33:39.780Z,69.40
2023-05-21T17:36:07.051Z,70.00
2023-05-21T17:38:34.146Z,69.40
2023-05-21T17:41:01.290Z,69.40
2023-05-21T17:43:28.409Z,69.60
2023-05-21T17:45:55.487Z,69.40
2023-05-21T17:48:22.611Z,70.00
2023-05-21T17:50:49.775Z,69.60
2023-05-21T17:53:16.898Z,69.60
2023-05-21T17:55:44.082Z,69.80
2023-05-21T17:58:11.246Z,70.10
2023-05-21T18:00:38.448Z,70.40
2023-05-21T18:03:05.842Z,70.20
2023-05-21T18:05:32.978Z,70.40
2023-05-21T18:08:01.429Z,70.10
2023-05-21T18:10:29.420Z,70.20
2023-05-21T18:12:56.474Z,70.40
2023-05-21T18:15:23.642Z,70.40
2023-05-21T18:17:50.837Z,70.30
2023-05-21T18:20:18.216Z,70.50
2023-05-21T18:22:45.578Z,70.70
2023-05-21T18:25:12.735Z,70.60
2023-05-21T18:27:40.015Z,70.70
2023-05-21T18:30:08.562Z,71.00
2023-05-21T18:32:38.964Z,70.70
2023-05-21T18:35:13.777Z,70.90
2023-05-21T18:37:44.414Z,71.10
2023-05-21T18:40:13.180Z,71.00
2023-05-21T18:42:40.686Z,71.40
2023-05-21T18:45:09.244Z,71.30
2023-05-21T18:47:36.755Z,71.40
2023-05-21T18:50:04.074Z,71.30
2023-05-21T18:52:31.110Z,71.70
2023-05-21T18:54:58.184Z,71.50
2023-05-21T18:57:25.283Z,71.50
2023-05-21T18:59:52.423Z,71.90
2023-05-21T19:02:19.701Z,71.60
2023-05-21T19:04:46.900Z,71.50
2023-05-21T19:07:15.931Z,71.80
2023-05-21T19:09:43.089Z,71.60
2023-05-21T19:12:10.322Z,71.90
2023-05-21T19:14:37.779Z,71.80
2023-05-21T19:17:05.069Z,71.80
2023-05-21T19:19:32.261Z,72.00
2023-05-21T19:21:59.430Z,71.80
2023-05-21T19:24:26.521Z,72.00
2023-05-21T19:26:56.668Z,71.70
2023-05-21T19:29:24.177Z,71.90
2023-05-21T19:31:54.998Z,71.90
2023-05-21T19:34:26.242Z,71.90
2023-05-21T19:36:54.121Z,72.00
2023-05-21T19:39:21.962Z,71.90
2023-05-21T19:41:49.350Z,71.80
2023-05-21T19:44:17.355Z,72.10
2023-05-21T19:46:44.640Z,72.20
2023-05-21T19:49:14.127Z,71.90
2023-05-21T19:51:41.471Z,72.10
2023-05-21T19:54:08.486Z,72.10
2023-05-21T19:56:35.633Z,71.90
2023-05-21T19:59:02.881Z,72.10
2023-05-21T20:01:33.297Z,72.00
2023-05-21T20:04:00.834Z,72.10
2023-05-21T20:06:28.006Z,72.10
2023-05-21T20:08:55.176Z,72.20
2023-05-21T20:11:22.335Z,72.10
2023-05-21T20:13:50.628Z,72.10
2023-05-21T20:16:20.449Z,72.20
2023-05-21T20:18:47.938Z,72.30
2023-05-21T20:21:22.830Z,72.40
2023-05-21T20:23:50.666Z,72.40
2023-05-21T20:26:19.087Z,72.40
2023-05-21T20:28:46.295Z,72.30
2023-05-21T20:31:13.626Z,72.40
2023-05-21T20:33:43.508Z,73.00
2023-05-21T20:36:11.132Z,72.40
2023-05-21T20:38:38.534Z,72.40
2023-05-21T20:41:06.012Z,72.40
2023-05-21T20:43:33.805Z,72.60
2023-05-21T20:46:00.959Z,72.60
2023-05-21T20:48:29.774Z,72.40
2023-05-21T20:50:57.699Z,72.60
2023-05-21T20:53:26.111Z,72.80
2023-05-21T20:55:54.797Z,72.60
2023-05-21T20:58:24.123Z,72.70
2023-05-21T21:00:51.429Z,73.20
2023-05-21T21:03:21.703Z,72.50
2023-05-21T21:05:49.427Z,72.60
2023-05-21T21:08:16.852Z,72.60
2023-05-21T21:10:46.951Z,72.80
2023-05-21T21:13:14.766Z,72.80
2023-05-21T21:15:43.965Z,73.00
2023-05-21T21:18:12.572Z,73.10
2023-05-21T21:20:41.450Z,72.80
2023-05-21T21:23:09.015Z,72.80
2023-05-21T21:25:36.503Z,73.00
2023-05-21T21:28:03.720Z,72.90
2023-05-21T21:30:30.934Z,73.10
2023-05-21T21:32:58.172Z,73.10
2023-05-21T21:35:25.258Z,73.20
2023-05-21T21:37:52.461Z,73.20
2023-05-21T21:40:19.499Z,73.30
2023-05-21T21:42:46.875Z,73.20
2023-05-21T21:45:14.103Z,73.10
2023-05-21T21:47:41.412Z,73.20
2023-05-21T21:50:08.831Z,73.40
2023-05-21T21:52:39.997Z,73.70
2023-05-21T21:55:10.919Z,73.40
2023-05-21T21:57:39.718Z,73.80
2023-05-21T22:00:15.945Z,73.40
2023-05-21T22:02:43.897Z,73.50
2023-05-21T22:05:14.812Z,73.70
2023-05-21T22:07:46.722Z,73.80
2023-05-21T22:10:15.289Z,73.90
2023-05-21T22:12:42.733Z,74.00
2023-05-21T22:15:18.103Z,74.50
2023-05-21T22:17:45.955Z,74.60
2023-05-21T22:20:13.176Z,74.70
2023-05-21T22:22:40.179Z,74.90
2023-05-21T22:25:10.505Z,74.60
2023-05-21T22:27:38.010Z,75.60
2023-05-21T22:30:06.347Z,75.30
2023-05-21T22:32:33.369Z,75.40
2023-05-21T22:35:00.740Z,75.60
2023-05-21T22:37:28.057Z,75.60
2023-05-21T22:39:55.710Z,76.60
2023-05-21T22:42:23.563Z,76.30
2023-05-21T22:44:52.243Z,76.10
2023-05-21T22:47:23.846Z,76.20
2023-05-21T22:49:53.948Z,76.30
2023-05-21T22:52:24.103Z,76.60
2023-05-21T22:54:54.684Z,77.00
2023-05-21T22:57:22.298Z,77.50
2023-05-21T22:59:49.842Z,78.10
2023-05-21T23:02:17.636Z,78.60
2023-05-21T23:04:44.879Z,78.40
2023-05-21T23:07:12.620Z,78.90
2023-05-21T23:09:42.494Z,78.30
2023-05-21T23:12:10.200Z,78.20
2023-05-21T23:14:37.188Z,77.90
2023-05-21T23:17:04.649Z,78.20
2023-05-21T23:19:33.027Z,77.30
2023-05-21T23:22:00.389Z,77.30
2023-05-21T23:24:29.539Z,76.80
2023-05-21T23:27:02.100Z,76.50
2023-05-21T23:29:31.236Z,76.20
2023-05-21T23:31:58.610Z,76.00
2023-05-21T23:34:25.941Z,76.00
2023-05-21T23:36:53.486Z,76.40
2023-05-21T23:39:51.788Z,76.40
2023-05-21T23:42:26.578Z,76.10
2023-05-21T23:44:53.551Z,76.90
2023-05-21T23:47:20.988Z,76.40
2023-05-21T23:49:48.305Z,75.90
2023-05-21T23:52:18.343Z,75.70
2023-05-21T23:54:45.648Z,75.80
2023-05-21T23:57:13.426Z,75.40
2023-05-21T23:59:40.747Z,75.40
